Time;durP1;ratioP1;P1;durP2;ratioP2;P2;SDS_P1;SDS_P2;PMS_P1;PMS_P2;Temp;Humidity;BMP_temperature;BMP_pressure;BME280_temperature;BME280_humidity;BME280_pressure;Samples;Min_cycle;Max_cycle;Signal;HPM_P1;HPM_P2
2021/08/05 00:00:05;;;;;;;1.65;1.55;;;22.30;65.80;;;;;;5029871;28;20056;-36
2021/08/05 00:02:31;;;;;;;1.40;1.40;;;22.30;65.70;;;;;;5010122;28;20049;-36
2021/08/05 00:04:56;;;;;;;1.45;1.45;;;22.30;65.50;;;;;;5026849;28;20032;-36
2021/08/05 00:07:22;;;;;;;1.58;1.58;;;22.20;66.40;;;;;;5027444;28;20075;-41
2021/08/05 00:09:47;;;;;;;1.80;1.80;;;22.20;65.70;;;;;;5024724;28;20068;-37
2021/08/05 00:12:13;;;;;;;1.83;1.73;;;22.20;65.80;;;;;;5027994;28;20045;-39
2021/08/05 00:14:39;;;;;;;1.70;1.60;;;22.30;65.80;;;;;;5010604;28;20033;-37
2021/08/05 00:17:04;;;;;;;1.67;1.58;;;22.30;65.50;;;;;;5027382;28;20033;-40
2021/08/05 00:19:30;;;;;;;1.92;1.83;;;22.20;65.60;;;;;;5026743;28;20391;-42
2021/08/05 00:21:56;;;;;;;1.67;1.63;;;22.20;65.90;;;;;;5025385;28;20034;-41
2021/08/05 00:24:21;;;;;;;1.58;1.58;;;22.20;65.70;;;;;;5025235;28;20782;-40
2021/08/05 00:26:47;;;;;;;1.77;1.67;;;22.20;65.80;;;;;;5024896;28;20163;-40
2021/08/05 00:29:12;;;;;;;1.50;1.50;;;22.30;65.50;;;;;;5023453;28;20037;-39
2021/08/05 00:31:38;;;;;;;1.60;1.50;;;22.30;65.80;;;;;;5027150;28;20045;-38
2021/08/05 00:34:04;;;;;;;1.80;1.70;;;22.30;65.50;;;;;;5025980;28;20086;-41
2021/08/05 00:36:29;;;;;;;1.40;1.40;;;22.30;65.60;;;;;;5023967;28;20044;-39
2021/08/05 00:38:55;;;;;;;1.50;1.50;;;22.30;65.50;;;;;;5038834;28;20060;-39
2021/08/05 00:41:20;;;;;;;2.03;1.50;;;22.30;65.50;;;;;;5028085;28;20103;-40
2021/08/05 00:43:46;;;;;;;1.70;1.60;;;22.20;65.40;;;;;;5021674;28;20132;-41
2021/08/05 00:46:11;;;;;;;1.17;1.17;;;22.30;65.60;;;;;;5029080;28;20809;-49
2021/08/05 00:48:37;;;;;;;1.63;1.52;;;22.40;65.30;;;;;;5025495;28;20448;-40
2021/08/05 00:51:03;;;;;;;1.80;1.70;;;22.30;65.40;;;;;;5032409;28;20033;-36
2021/08/05 00:53:28;;;;;;;1.48;1.48;;;22.20;65.40;;;;;;5029692;28;20041;-43
2021/08/05 00:55:54;;;;;;;1.55;1.50;;;22.20;65.70;;;;;;5027058;28;20538;-38
2021/08/05 00:58:20;;;;;;;1.70;1.63;;;22.20;65.30;;;;;;5012562;28;20032;-31
2021/08/05 01:00:48;;;;;;;1.55;1.55;;;22.20;65.70;;;;;;5026088;28;20502;-34
2021/08/05 01:03:27;;;;;;;1.67;1.60;;;22.20;65.40;;;;;;4995484;28;20033;-45
2021/08/05 01:06:17;;;;;;;1.63;1.52;;;22.20;65.70;;;;;;5011491;28;20532;-42
2021/08/05 01:08:46;;;;;;;1.83;1.73;;;22.10;65.80;;;;;;4996957;28;20486;-38
2021/08/05 01:11:41;;;;;;;1.60;1.60;;;22.10;65.90;;;;;;5029091;28;20041;-35
2021/08/05 01:14:07;;;;;;;;;;;22.10;66.00;;;;;;5009126;28;20041;-47
2021/08/05 01:16:33;;;;;;;1.50;1.50;;;22.10;66.00;;;;;;5012587;28;19909;-39
2021/08/05 01:19:25;;;;;;;1.83;1.75;;;22.10;65.90;;;;;;5010067;28;20033;-41
2021/08/05 01:21:56;;;;;;;1.70;1.60;;;22.00;66.00;;;;;;5012039;28;20041;-42
2021/08/05 01:24:23;;;;;;;1.63;1.60;;;22.10;66.30;;;;;;4991319;28;20026;-40
2021/08/05 01:26:49;;;;;;;2.00;1.90;;;22.10;66.00;;;;;;5011536;28;20156;-42
2021/08/05 01:29:18;;;;;;;1.73;1.63;;;22.00;66.00;;;;;;5029137;28;20052;-43
2021/08/05 01:31:44;;;;;;;1.83;1.73;;;22.00;66.10;;;;;;5029270;28;20045;-41
2021/08/05 01:34:14;;;;;;;1.80;1.70;;;22.00;66.00;;;;;;5009211;28;20025;-42
2021/08/05 01:36:41;;;;;;;1.85;1.75;;;22.00;66.10;;;;;;4991410;28;20064;-40
2021/08/05 01:39:06;;;;;;;1.50;1.50;;;22.10;66.10;;;;;;5007942;28;20132;-38
2021/08/05 01:41:32;;;;;;;1.70;1.60;;;22.00;66.20;;;;;;5028825;28;20540;-38
2021/08/05 01:43:57;;;;;;;1.77;1.67;;;22.00;65.90;;;;;;4995231;28;20121;-42
2021/08/05 01:46:23;;;;;;;1.85;1.75;;;22.00;65.80;;;;;;5012100;28;20511;-42
2021/08/05 01:48:50;;;;;;;1.77;1.67;;;22.00;66.10;;;;;;5026045;28;20013;-35
2021/08/05 01:51:15;;;;;;;1.85;1.75;;;22.00;66.00;;;;;;4999930;28;20030;-35
2021/08/05 01:53:41;;;;;;;1.73;1.63;;;21.90;66.20;;;;;;5009863;28;20021;-41
2021/08/05 01:56:06;;;;;;;1.92;1.83;;;21.90;66.10;;;;;;4992233;28;20029;-44
2021/08/05 01:58:32;;;;;;;2.20;2.10;;;22.00;66.20;;;;;;5013331;28;20029;-43
2021/08/05 02:00:57;;;;;;;1.83;1.75;;;22.00;66.10;;;;;;5026564;28;20037;-42
2021/08/05 02:03:23;;;;;;;1.77;1.67;;;21.90;66.10;;;;;;5017838;28;20048;-42
2021/08/05 02:05:54;;;;;;;1.95;1.85;;;21.90;67.10;;;;;;5029221;28;20045;-42
2021/08/05 02:08:22;;;;;;;1.92;1.83;;;21.90;66.10;;;;;;5032717;28;20387;-42
2021/08/05 02:10:48;;;;;;;1.80;1.70;;;21.90;66.20;;;;;;5014408;28;20040;-42
2021/08/05 02:13:24;;;;;;;1.98;1.88;;;21.90;66.50;;;;;;5032551;28;20040;-43
2021/08/05 02:15:52;;;;;;;2.00;1.90;;;22.00;66.00;;;;;;5009767;28;20037;-36
2021/08/05 02:18:18;;;;;;;1.67;1.67;;;21.90;66.10;;;;;;5009508;28;20033;-41
2021/08/05 02:20:44;;;;;;;2.00;1.90;;;21.90;66.10;;;;;;5007438;28;20115;-43
2021/08/05 02:23:10;;;;;;;1.90;1.80;;;22.00;65.90;;;;;;5012267;28;20038;-42
2021/08/05 02:25:38;;;;;;;1.42;1.42;;;22.00;65.90;;;;;;5012064;28;20495;-41
2021/08/05 02:28:03;;;;;;;1.80;1.70;;;22.00;65.40;;;;;;5026092;28;20106;-36
2021/08/05 02:30:29;;;;;;;1.90;1.80;;;22.10;65.50;;;;;;4999241;28;20033;-36
2021/08/05 02:32:55;;;;;;;1.70;1.60;;;22.00;65.60;;;;;;5032210;28;20091;-45
2021/08/05 02:35:20;;;;;;;1.90;1.80;;;22.00;65.50;;;;;;5009636;28;20084;-40
2021/08/05 02:37:46;;;;;;;1.90;1.80;;;22.10;65.80;;;;;;4976076;28;20076;-41
2021/08/05 02:40:12;;;;;;;2.10;2.00;;;22.00;65.60;;;;;;4669604;28;9999751;-42
2021/08/05 02:42:38;;;;;;;2.00;1.90;;;22.00;65.80;;;;;;5017627;28;20100;-42
2021/08/05 02:45:04;;;;;;;1.88;1.77;;;22.00;65.90;;;;;;5033769;28;20594;-43
2021/08/05 02:47:30;;;;;;;2.13;2.03;;;22.00;65.70;;;;;;5031815;28;20029;-42
2021/08/05 02:49:56;;;;;;;1.90;1.80;;;22.00;65.90;;;;;;4998706;28;20024;-43
2021/08/05 02:52:22;;;;;;;2.00;1.90;;;22.00;65.80;;;;;;4999782;28;20040;-42
2021/08/05 02:54:48;;;;;;;1.77;1.67;;;22.00;66.00;;;;;;5028977;28;20037;-42
2021/08/05 02:57:13;;;;;;;2.42;2.22;;;22.00;65.90;;;;;;5015147;28;20095;-42
2021/08/05 02:59:39;;;;;;;1.90;1.80;;;22.00;66.70;;;;;;5015943;28;20459;-42
2021/08/05 03:02:05;;;;;;;2.03;1.92;;;22.00;66.10;;;;;;4994777;28;20025;-42
2021/08/05 03:04:34;;;;;;;1.98;1.88;;;22.00;66.20;;;;;;5014923;28;20025;-38
2021/08/05 03:07:00;;;;;;;1.85;1.75;;;22.00;66.40;;;;;;5030806;28;20049;-42
2021/08/05 03:09:26;;;;;;;1.90;1.80;;;22.10;66.20;;;;;;5029755;28;20051;-43
2021/08/05 03:11:51;;;;;;;2.00;1.90;;;22.10;66.40;;;;;;5034581;28;20491;-41
2021/08/05 03:14:17;;;;;;;2.45;2.20;;;22.10;66.30;;;;;;5010826;28;20045;-42
2021/08/05 03:16:43;;;;;;;2.85;1.88;;;22.10;66.20;;;;;;5009229;28;20080;-39
2021/08/05 03:19:08;;;;;;;2.13;1.90;;;22.10;66.40;;;;;;5010222;28;20049;-40
2021/08/05 03:21:34;;;;;;;1.88;1.77;;;22.00;67.20;;;;;;5035891;28;20041;-47
2021/08/05 03:23:59;;;;;;;1.88;1.77;;;22.00;66.50;;;;;;5040066;28;20025;-38
2021/08/05 03:26:25;;;;;;;1.90;1.80;;;22.10;66.60;;;;;;5028919;28;20083;-44
2021/08/05 03:28:50;;;;;;;2.20;2.10;;;22.10;66.40;;;;;;5028956;28;20053;-33
2021/08/05 03:31:16;;;;;;;2.05;1.95;;;22.10;66.30;;;;;;5021587;28;20049;-36
2021/08/05 03:33:42;;;;;;;2.85;1.98;;;22.10;66.40;;;;;;5012978;28;20097;-42
2021/08/05 03:36:07;;;;;;;2.08;1.98;;;22.10;66.40;;;;;;5033919;28;20044;-42
2021/08/05 03:38:33;;;;;;;2.10;1.90;;;22.10;66.60;;;;;;5031045;28;20034;-42
2021/08/05 03:41:01;;;;;;;1.83;1.73;;;22.10;66.60;;;;;;5031243;28;20040;-42
2021/08/05 03:43:27;;;;;;;2.08;1.98;;;22.00;66.70;;;;;;5026482;28;20590;-42
2021/08/05 03:45:52;;;;;;;2.20;2.10;;;22.10;67.30;;;;;;5027264;28;20029;-42
2021/08/05 03:48:18;;;;;;;1.80;1.70;;;22.10;66.50;;;;;;5044304;28;20455;-42
2021/08/05 03:50:43;;;;;;;2.15;1.90;;;22.10;66.70;;;;;;5032539;28;20037;-42
2021/08/05 03:53:09;;;;;;;1.80;1.70;;;22.10;66.70;;;;;;5031584;28;20041;-42
2021/08/05 03:55:34;;;;;;;1.90;1.80;;;22.00;66.60;;;;;;5030683;28;20502;-42
2021/08/05 03:58:00;;;;;;;2.83;2.22;;;22.10;66.50;;;;;;5030044;28;20047;-42
2021/08/05 04:00:26;;;;;;;2.33;2.13;;;22.10;66.50;;;;;;5013284;28;20739;-42
2021/08/05 04:02:51;;;;;;;2.30;2.10;;;22.00;66.70;;;;;;5033656;28;20029;-42
2021/08/05 04:05:17;;;;;;;2.22;2.13;;;22.10;66.40;;;;;;5013843;28;20512;-42
2021/08/05 04:07:42;;;;;;;2.28;2.10;;;22.10;66.60;;;;;;5031193;28;20037;-42
2021/08/05 04:10:08;;;;;;;1.90;1.80;;;22.00;66.70;;;;;;5028883;28;20075;-42
2021/08/05 04:12:34;;;;;;;1.70;1.60;;;22.00;66.70;;;;;;5029603;28;20543;-42
2021/08/05 04:15:00;;;;;;;1.73;1.63;;;22.10;66.60;;;;;;5028708;28;20025;-40
2021/08/05 04:17:25;;;;;;;1.90;1.80;;;22.10;66.50;;;;;;5026553;28;20056;-38
2021/08/05 04:19:51;;;;;;;1.77;1.67;;;22.10;66.60;;;;;;5004048;28;20801;-42
2021/08/05 04:22:16;;;;;;;2.38;1.95;;;22.10;66.50;;;;;;5017567;28;20103;-43
2021/08/05 04:24:42;;;;;;;2.00;1.90;;;22.10;66.40;;;;;;4996023;28;20120;-42
2021/08/05 04:27:07;;;;;;;1.85;1.75;;;22.10;66.30;;;;;;5024256;28;20412;-42
2021/08/05 04:29:33;;;;;;;2.00;1.90;;;22.10;66.70;;;;;;5031997;28;20061;-42
2021/08/05 04:31:59;;;;;;;1.98;1.88;;;22.10;66.40;;;;;;5027695;28;20041;-43
2021/08/05 04:34:24;;;;;;;1.90;1.80;;;22.10;66.10;;;;;;5022993;28;20033;-42
2021/08/05 04:36:50;;;;;;;2.28;2.10;;;22.10;66.30;;;;;;5038640;28;20025;-43
2021/08/05 04:39:15;;;;;;;2.00;1.90;;;22.10;66.30;;;;;;5024318;28;20439;-43
2021/08/05 04:41:41;;;;;;;2.03;1.92;;;22.00;66.30;;;;;;5025640;28;20033;-43
2021/08/05 04:44:06;;;;;;;2.33;2.22;;;22.00;66.50;;;;;;5023384;28;20100;-43
2021/08/05 04:46:32;;;;;;;1.92;1.83;;;22.00;66.50;;;;;;5023314;28;20148;-43
2021/08/05 04:48:57;;;;;;;1.75;1.65;;;21.90;66.60;;;;;;5024198;28;20022;-45
2021/08/05 04:51:23;;;;;;;2.17;2.08;;;21.90;66.60;;;;;;5023678;28;20219;-46
2021/08/05 04:53:49;;;;;;;2.20;2.03;;;21.90;66.80;;;;;;5020672;28;20026;-43
2021/08/05 04:56:14;;;;;;;1.80;1.70;;;21.90;66.70;;;;;;5023962;28;20030;-43
2021/08/05 04:58:40;;;;;;;2.28;2.17;;;21.90;66.80;;;;;;5028646;28;20113;-43
2021/08/05 05:01:05;;;;;;;2.13;2.03;;;21.90;66.70;;;;;;5012625;28;20442;-44
2021/08/05 05:03:31;;;;;;;2.22;2.03;;;21.90;66.60;;;;;;5005976;28;20017;-43
2021/08/05 05:05:57;;;;;;;1.83;1.73;;;21.90;66.60;;;;;;5020623;28;20443;-43
2021/08/05 05:08:24;;;;;;;1.63;1.52;;;21.80;66.60;;;;;;5024323;28;20068;-43
2021/08/05 05:10:54;;;;;;;1.95;1.85;;;21.80;67.50;;;;;;5028940;28;20026;-43
2021/08/05 05:13:20;;;;;;;2.35;2.15;;;21.80;66.50;;;;;;5034137;28;20416;-42
2021/08/05 05:15:46;;;;;;;2.15;2.05;;;21.80;66.70;;;;;;5015378;28;20021;-38
2021/08/05 05:18:12;;;;;;;2.30;2.10;;;21.80;66.60;;;;;;5027452;28;20079;-38
2021/08/05 05:20:38;;;;;;;1.85;1.75;;;21.80;66.40;;;;;;5027930;28;20109;-43
2021/08/05 05:23:04;;;;;;;2.20;2.10;;;21.80;66.30;;;;;;5028513;28;20172;-39
2021/08/05 05:25:29;;;;;;;2.25;2.05;;;21.80;66.50;;;;;;5028346;28;20060;-37
2021/08/05 05:27:55;;;;;;;2.35;2.15;;;21.70;66.50;;;;;;5020278;28;20067;-41
2021/08/05 05:30:21;;;;;;;3.28;2.00;;;21.70;66.60;;;;;;4995621;28;20038;-42
2021/08/05 05:32:47;;;;;;;2.10;2.00;;;21.80;66.40;;;;;;5031273;28;20048;-42
2021/08/05 05:35:16;;;;;;;2.28;2.17;;;21.80;66.50;;;;;;5024928;28;20014;-43
2021/08/05 05:37:42;;;;;;;2.40;1.77;;;21.70;66.50;;;;;;5009384;28;20052;-43
2021/08/05 05:40:08;;;;;;;1.98;1.88;;;21.70;67.30;;;;;;5028060;28;20127;-43
2021/08/05 05:42:34;;;;;;;1.98;1.88;;;21.70;66.50;;;;;;5003180;28;20033;-44
2021/08/05 05:44:59;;;;;;;3.13;2.00;;;21.70;66.40;;;;;;5024623;28;20026;-43
2021/08/05 05:47:25;;;;;;;1.85;1.75;;;21.70;66.30;;;;;;5021582;28;20029;-43
2021/08/05 05:49:52;;;;;;;2.15;2.05;;;21.70;66.50;;;;;;5022678;28;20027;-43
2021/08/05 05:52:18;;;;;;;1.83;1.73;;;21.70;66.40;;;;;;5024117;28;20033;-43
2021/08/05 05:54:44;;;;;;;2.00;1.90;;;21.70;66.20;;;;;;5020822;28;20025;-43
2021/08/05 05:57:09;;;;;;;2.05;1.95;;;21.70;66.90;;;;;;5030799;28;20036;-43
2021/08/05 05:59:35;;;;;;;2.15;2.00;;;21.70;66.30;;;;;;5031828;28;20037;-43
2021/08/05 06:02:00;;;;;;;1.88;1.77;;;21.60;66.50;;;;;;4682174;28;10000538;-43
2021/08/05 06:04:27;;;;;;;3.03;1.90;;;21.70;66.60;;;;;;5010259;28;20033;-44
2021/08/05 06:06:53;;;;;;;2.13;2.03;;;21.70;66.20;;;;;;5028287;28;20045;-43
2021/08/05 06:09:19;;;;;;;2.00;1.90;;;21.70;66.10;;;;;;5027602;28;20025;-43
2021/08/05 06:11:44;;;;;;;1.75;1.65;;;21.80;66.00;;;;;;5027732;28;20051;-43
2021/08/05 06:14:10;;;;;;;2.03;1.92;;;21.80;65.80;;;;;;5009746;28;20029;-41
2021/08/05 06:16:36;;;;;;;2.10;2.00;;;21.80;65.90;;;;;;5027247;28;20495;-43
2021/08/05 06:19:02;;;;;;;2.00;1.90;;;21.80;66.00;;;;;;5010478;28;20018;-43
2021/08/05 06:21:28;;;;;;;1.70;1.60;;;21.80;66.00;;;;;;5028624;28;20171;-43
2021/08/05 06:23:53;;;;;;;2.28;2.17;;;21.80;65.90;;;;;;5027183;28;20040;-43
2021/08/05 06:26:23;;;;;;;2.22;2.13;;;21.90;65.70;;;;;;5027697;28;20627;-44
2021/08/05 06:28:49;;;;;;;2.00;1.90;;;21.90;65.70;;;;;;5024877;28;20054;-43
2021/08/05 06:31:16;;;;;;;1.90;1.80;;;21.80;66.00;;;;;;4995049;28;20634;-43
2021/08/05 06:33:41;;;;;;;2.45;2.30;;;21.80;66.20;;;;;;5027838;28;20104;-43
2021/08/05 06:36:07;;;;;;;2.05;1.95;;;21.80;66.10;;;;;;5015357;28;20444;-44
2021/08/05 06:38:32;;;;;;;2.10;2.00;;;21.80;65.80;;;;;;5027530;28;20026;-43
2021/08/05 06:40:58;;;;;;;3.00;2.00;;;21.90;65.90;;;;;;5021755;28;20160;-43
2021/08/05 06:43:23;;;;;;;2.05;1.95;;;21.90;65.90;;;;;;5023135;28;20029;-43
2021/08/05 06:45:49;;;;;;;1.92;1.83;;;21.90;66.70;;;;;;5027077;28;20025;-42
2021/08/05 06:48:15;;;;;;;3.35;1.95;;;21.90;65.70;;;;;;5027537;28;20100;-43
2021/08/05 06:50:40;;;;;;;2.33;2.15;;;21.90;66.00;;;;;;5027803;28;20032;-43
2021/08/05 06:53:06;;;;;;;2.45;2.17;;;21.90;65.90;;;;;;5029575;28;20052;-43
2021/08/05 06:55:31;;;;;;;1.90;1.80;;;21.90;66.10;;;;;;5031575;28;20025;-43
2021/08/05 06:57:57;;;;;;;2.30;1.98;;;21.90;66.10;;;;;;5031870;28;20033;-43
2021/08/05 07:00:22;;;;;;;2.17;2.00;;;21.90;66.10;;;;;;5031577;28;20653;-43
2021/08/05 07:02:48;;;;;;;2.40;2.20;;;21.90;66.30;;;;;;5029075;28;20091;-43
2021/08/05 07:05:14;;;;;;;2.20;2.00;;;21.90;66.30;;;;;;5031240;28;20033;-43
2021/08/05 07:07:39;;;;;;;2.10;2.00;;;21.90;66.30;;;;;;5030262;28;20032;-43
2021/08/05 07:10:05;;;;;;;2.13;2.03;;;21.90;66.50;;;;;;5004970;28;20112;-43
2021/08/05 07:12:31;;;;;;;1.85;1.75;;;21.90;66.40;;;;;;5035138;28;20033;-43
2021/08/05 07:14:57;;;;;;;1.98;1.88;;;21.90;66.50;;;;;;5014605;28;20099;-44
2021/08/05 07:17:22;;;;;;;1.80;1.70;;;21.90;66.50;;;;;;5030640;28;20381;-40
2021/08/05 07:19:48;;;;;;;1.90;1.80;;;21.90;66.80;;;;;;5034660;28;20037;-38
2021/08/05 07:22:13;;;;;;;1.95;1.85;;;21.90;67.00;;;;;;5043073;28;20120;-49
2021/08/05 07:24:39;;;;;;;1.73;1.63;;;21.90;67.00;;;;;;5027116;28;20025;-38
2021/08/05 07:27:05;;;;;;;1.90;1.80;;;21.80;67.20;;;;;;5032529;28;20025;-38
2021/08/05 07:29:31;;;;;;;2.00;1.90;;;21.80;67.40;;;;;;5030848;28;20037;-43
2021/08/05 07:31:57;;;;;;;1.85;1.75;;;21.80;67.60;;;;;;5035071;28;20041;-39
2021/08/05 07:34:23;;;;;;;1.95;1.85;;;21.80;67.80;;;;;;5041052;28;20431;-40
2021/08/05 07:36:48;;;;;;;1.65;1.55;;;21.80;67.70;;;;;;5015850;28;20021;-42
2021/08/05 07:39:14;;;;;;;1.98;1.88;;;21.80;67.80;;;;;;5001745;28;20466;-43
2021/08/05 07:41:40;;;;;;;1.75;1.65;;;21.80;68.10;;;;;;5031885;28;20450;-43
2021/08/05 07:44:06;;;;;;;2.10;1.90;;;21.70;68.80;;;;;;5031410;28;20029;-43
2021/08/05 07:46:32;;;;;;;2.10;1.90;;;21.70;69.20;;;;;;5029966;28;20025;-38
2021/08/05 07:48:57;;;;;;;1.70;1.60;;;21.60;69.30;;;;;;5027096;28;20029;-43
2021/08/05 07:51:23;;;;;;;1.92;1.83;;;21.60;69.40;;;;;;5029523;28;20112;-43
2021/08/05 07:53:48;;;;;;;1.60;1.60;;;21.60;69.40;;;;;;5028174;28;20037;-43
2021/08/05 07:56:14;;;;;;;1.90;1.80;;;21.70;70.20;;;;;;5028867;28;20026;-43
2021/08/05 07:58:40;;;;;;;1.88;1.77;;;21.60;69.40;;;;;;5031394;28;20041;-44
2021/08/05 08:01:05;;;;;;;1.80;1.70;;;21.70;69.60;;;;;;5027776;28;20032;-41
2021/08/05 08:03:31;;;;;;;2.03;1.90;;;21.70;69.60;;;;;;5024371;28;20036;-41
2021/08/05 08:05:56;;;;;;;1.75;1.65;;;21.70;69.60;;;;;;5016121;28;20074;-42
2021/08/05 08:08:22;;;;;;;1.65;1.55;;;21.80;68.80;;;;;;5029445;28;20419;-41
2021/08/05 08:10:47;;;;;;;1.90;1.80;;;21.90;69.40;;;;;;5029730;28;20530;-44
2021/08/05 08:13:13;;;;;;;1.85;1.75;;;21.90;68.50;;;;;;5028735;28;20041;-43
2021/08/05 08:15:39;;;;;;;2.35;1.73;;;21.90;68.50;;;;;;5019272;28;20082;-44
2021/08/05 08:18:04;;;;;;;2.00;1.90;;;21.90;68.40;;;;;;5010862;28;20121;-48
2021/08/05 08:20:31;;;;;;;2.15;2.05;;;21.90;68.50;;;;;;5025725;28;20041;-41
2021/08/05 08:22:57;;;;;;;1.42;1.42;;;21.90;68.50;;;;;;5004009;28;20037;-40
2021/08/05 08:25:22;;;;;;;1.48;1.38;;;21.90;68.40;;;;;;4998939;28;20095;-43
2021/08/05 08:27:48;;;;;;;1.70;1.60;;;21.90;68.50;;;;;;5012039;28;20518;-47
2021/08/05 08:30:14;;;;;;;2.30;1.58;;;22.00;68.60;;;;;;5021024;28;20030;-45
2021/08/05 08:32:40;;;;;;;1.70;1.60;;;22.00;68.30;;;;;;5010057;28;20037;-44
2021/08/05 08:35:06;;;;;;;1.50;1.42;;;22.00;68.30;;;;;;5033017;28;20040;-34
2021/08/05 08:37:32;;;;;;;1.60;1.50;;;22.00;68.20;;;;;;5031710;28;20029;-42
2021/08/05 08:39:57;;;;;;;1.45;1.35;;;22.10;68.40;;;;;;5026166;28;20037;-36
2021/08/05 08:42:23;;;;;;;1.70;1.52;;;22.00;68.50;;;;;;5025397;28;20029;-39
2021/08/05 08:44:49;;;;;;;1.55;1.50;;;22.00;68.60;;;;;;5011564;28;20791;-34
2021/08/05 08:47:14;;;;;;;1.70;1.60;;;22.00;68.60;;;;;;5023104;28;20049;-45
2021/08/05 08:49:41;;;;;;;1.80;1.70;;;22.00;68.60;;;;;;5005187;28;20044;-37
2021/08/05 08:52:07;;;;;;;1.55;1.45;;;22.00;68.70;;;;;;4994500;28;20100;-40
2021/08/05 08:54:33;;;;;;;1.73;1.60;;;22.10;68.80;;;;;;5003019;28;22350;-41
2021/08/05 08:56:58;;;;;;;1.48;1.38;;;22.10;68.60;;;;;;5001529;28;20083;-46
2021/08/05 08:59:24;;;;;;;1.48;1.35;;;22.10;68.70;;;;;;5035858;28;20170;-44
2021/08/05 09:01:49;;;;;;;1.20;1.20;;;22.00;68.80;;;;;;5016936;28;20037;-43
2021/08/05 09:04:16;;;;;;;3.05;1.30;;;22.10;68.80;;;;;;5032157;28;20029;-43
2021/08/05 09:06:42;;;;;;;1.50;1.50;;;22.00;68.80;;;;;;5006648;28;20110;-43
2021/08/05 09:09:08;;;;;;;1.40;1.30;;;22.00;69.00;;;;;;5032630;28;20033;-44
2021/08/05 09:11:34;;;;;;;1.58;1.48;;;22.00;68.70;;;;;;5026944;28;20531;-43
2021/08/05 09:13:59;;;;;;;1.20;1.10;;;22.10;68.60;;;;;;5021277;28;20030;-44
2021/08/05 09:16:28;;;;;;;1.35;1.35;;;22.10;68.60;;;;;;5011175;28;20065;-43
2021/08/05 09:18:54;;;;;;;1.10;1.10;;;22.10;69.40;;;;;;5024300;28;20026;-36
2021/08/05 09:21:25;;;;;;;1.50;1.40;;;22.10;68.70;;;;;;5014579;28;20026;-35
2021/08/05 09:24:06;;;;;;;0.95;0.95;;;22.10;68.60;;;;;;5003439;28;20034;-39
2021/08/05 09:26:43;;;;;;;0.98;0.98;;;22.10;68.50;;;;;;5020311;28;20022;-45
2021/08/05 09:29:09;;;;;;;1.02;1.02;;;22.10;68.90;;;;;;5019301;28;20045;-43
2021/08/05 09:31:37;;;;;;;1.10;1.10;;;21.90;69.40;;;;;;5019454;28;20045;-44
2021/08/05 09:34:05;;;;;;;1.23;1.23;;;21.90;69.50;;;;;;5022027;28;20045;-33
2021/08/05 09:36:30;;;;;;;0.90;0.90;;;22.00;69.30;;;;;;5022332;28;20030;-36
2021/08/05 09:38:56;;;;;;;1.33;1.23;;;22.20;68.70;;;;;;5009354;28;20065;-46
2021/08/05 09:41:22;;;;;;;1.17;1.10;;;22.20;68.50;;;;;;5016032;28;20413;-38
2021/08/05 09:43:47;;;;;;;0.80;0.80;;;22.20;68.40;;;;;;5020161;28;20037;-38
2021/08/05 09:46:13;;;;;;;1.00;0.85;;;22.10;68.40;;;;;;5024613;28;20025;-45
2021/08/05 09:48:43;;;;;;;1.10;1.10;;;22.20;68.60;;;;;;5003033;28;20057;-39
2021/08/05 09:51:16;;;;;;;1.10;1.00;;;22.20;68.80;;;;;;5024544;28;20583;-43
2021/08/05 09:54:01;;;;;;;1.95;0.98;;;22.20;68.70;;;;;;5027277;28;20041;-43
2021/08/05 09:56:27;;;;;;;2.03;1.02;;;22.10;68.90;;;;;;5028788;28;20176;-43
2021/08/05 09:59:04;;;;;;;1.77;1.10;;;22.10;68.80;;;;;;5011837;28;20044;-43
2021/08/05 10:01:30;;;;;;;0.82;0.80;;;22.20;68.80;;;;;;5012120;28;20391;-43
2021/08/05 10:03:56;;;;;;;2.67;1.05;;;22.30;68.60;;;;;;5020416;28;20031;-43
2021/08/05 10:06:21;;;;;;;0.90;0.90;;;22.20;68.70;;;;;;5013687;28;20053;-43
2021/08/05 10:08:47;;;;;;;1.23;1.13;;;22.20;68.80;;;;;;5031657;28;20034;-43
2021/08/05 10:11:12;;;;;;;1.10;1.10;;;22.20;68.80;;;;;;5017376;28;20104;-40
2021/08/05 10:13:39;;;;;;;1.00;0.90;;;22.20;69.50;;;;;;5019918;28;20029;-43
2021/08/05 10:16:09;;;;;;;0.90;0.90;;;22.20;68.70;;;;;;5017473;28;20077;-40
2021/08/05 10:18:36;;;;;;;1.13;1.02;;;22.20;68.80;;;;;;5022497;28;20037;-43
2021/08/05 10:21:04;;;;;;;0.80;0.80;;;22.20;68.80;;;;;;5024155;28;20029;-41
2021/08/05 10:23:29;;;;;;;0.93;0.93;;;22.20;68.60;;;;;;5021588;28;20029;-42
2021/08/05 10:26:03;;;;;;;1.00;0.90;;;22.20;68.70;;;;;;5024632;28;20041;-37
2021/08/05 10:28:29;;;;;;;1.05;1.00;;;22.20;68.70;;;;;;5018966;28;20029;-37
2021/08/05 10:30:55;;;;;;;1.45;1.10;;;22.20;68.80;;;;;;5023574;28;20034;-49
2021/08/05 10:33:21;;;;;;;1.02;1.02;;;22.30;68.70;;;;;;5029124;28;20049;-41
2021/08/05 10:35:48;;;;;;;0.88;0.80;;;22.30;68.90;;;;;;5034524;28;20079;-36
2021/08/05 10:38:18;;;;;;;1.25;1.15;;;22.30;69.20;;;;;;5033410;28;20037;-40
2021/08/05 10:40:43;;;;;;;1.33;1.23;;;22.30;69.20;;;;;;5017726;28;20571;-39
2021/08/05 10:43:10;;;;;;;1.98;0.85;;;22.30;69.80;;;;;;5028198;28;20120;-42
2021/08/05 10:45:36;;;;;;;0.95;0.95;;;22.30;70.50;;;;;;5023573;28;20033;-46
2021/08/05 10:48:02;;;;;;;3.15;1.20;;;22.30;69.80;;;;;;4994996;28;20038;-38
2021/08/05 10:50:27;;;;;;;0.90;0.90;;;22.30;69.50;;;;;;5018865;28;20036;-41
2021/08/05 10:52:55;;;;;;;1.00;1.00;;;22.30;69.80;;;;;;4979481;28;20628;-41
2021/08/05 10:55:22;;;;;;;1.10;0.90;;;22.30;70.00;;;;;;5018749;28;20116;-42
2021/08/05 10:58:13;;;;;;;0.90;0.90;;;22.30;69.90;;;;;;5018401;28;20045;-41
2021/08/05 11:00:52;;;;;;;2.50;0.90;;;22.30;70.00;;;;;;5022754;28;20042;-38
2021/08/05 11:03:33;;;;;;;0.88;0.88;;;22.40;69.80;;;;;;5017904;28;20030;-40
2021/08/05 11:05:59;;;;;;;1.20;1.10;;;22.40;69.60;;;;;;5029060;28;20665;-40
2021/08/05 11:08:26;;;;;;;1.55;1.17;;;22.40;70.50;;;;;;5026464;28;20882;-39
2021/08/05 11:11:24;;;;;;;1.30;1.20;;;22.40;69.60;;;;;;4996256;28;20044;-41
2021/08/05 11:14:10;;;;;;;1.40;1.23;;;22.40;69.50;;;;;;5027172;28;20037;-39
2021/08/05 11:16:50;;;;;;;1.30;1.02;;;22.50;69.50;;;;;;4944096;29;20047;-38
2021/08/05 11:19:26;;;;;;;1.95;1.45;;;22.40;69.50;;;;;;4944901;29;20132;-41
2021/08/05 11:21:52;;;;;;;3.22;1.00;;;22.50;69.50;;;;;;4945460;29;20047;-42
2021/08/05 11:24:48;;;;;;;1.63;1.52;;;22.40;69.50;;;;;;4945710;29;20058;-42
2021/08/05 11:27:15;;;;;;;1.30;1.20;;;22.40;69.70;;;;;;4945101;29;20058;-42
2021/08/05 11:29:40;;;;;;;1.30;1.20;;;22.40;70.00;;;;;;4948970;28;20035;-42
2021/08/05 11:32:21;;;;;;;1.15;1.05;;;22.40;70.90;;;;;;4946605;28;20078;-42
2021/08/05 11:35:01;;;;;;;2.50;1.17;;;22.40;70.30;;;;;;4943656;29;20138;-42
2021/08/05 11:37:26;;;;;;;1.15;1.15;;;22.40;70.10;;;;;;4938345;29;20122;-42
2021/08/05 11:39:56;;;;;;;1.50;1.40;;;22.40;70.30;;;;;;4943391;28;20118;-42
2021/08/05 11:42:23;;;;;;;1.45;1.13;;;22.30;70.80;;;;;;4946373;28;20070;-42
2021/08/05 11:44:52;;;;;;;2.15;1.30;;;22.30;71.80;;;;;;4947668;29;20031;-43
2021/08/05 11:47:19;;;;;;;2.05;1.15;;;22.20;71.80;;;;;;4946193;29;20051;-42
2021/08/05 11:50:07;;;;;;;1.30;1.20;;;22.10;71.80;;;;;;4947191;29;20035;-42
2021/08/05 11:52:41;;;;;;;0.88;0.88;;;22.20;72.10;;;;;;4941792;28;20483;-41
2021/08/05 11:55:23;;;;;;;0.95;0.90;;;22.10;72.20;;;;;;5024080;28;20028;-42
2021/08/05 11:57:53;;;;;;;1.02;0.80;;;22.10;72.50;;;;;;5015921;28;20064;-42
2021/08/05 12:00:19;;;;;;;1.33;1.05;;;22.10;73.10;;;;;;5030822;28;20025;-42
2021/08/05 12:02:49;;;;;;;0.85;0.85;;;22.10;73.10;;;;;;5030506;28;20040;-42
2021/08/05 12:05:16;;;;;;;0.90;0.90;;;22.00;73.20;;;;;;5030945;28;20116;-42
2021/08/05 12:07:49;;;;;;;1.83;1.08;;;22.00;73.60;;;;;;5030041;28;20037;-42
2021/08/05 12:10:34;;;;;;;0.80;0.80;;;22.10;73.50;;;;;;5019782;28;20037;-42
2021/08/05 12:13:04;;;;;;;1.00;1.00;;;22.10;73.40;;;;;;5029722;28;20025;-42
2021/08/05 12:15:34;;;;;;;0.80;0.80;;;22.10;73.50;;;;;;5022212;28;20033;-39
2021/08/05 12:18:04;;;;;;;2.50;1.00;;;22.30;72.40;;;;;;5030902;28;20041;-41
2021/08/05 12:20:32;;;;;;;0.75;0.75;;;22.50;72.00;;;;;;5039460;28;20029;-42
2021/08/05 12:23:10;;;;;;;0.98;0.98;;;22.40;71.90;;;;;;5038344;28;20036;-42
2021/08/05 12:25:46;;;;;;;0.73;0.73;;;22.30;73.10;;;;;;5032675;28;20047;-42
2021/08/05 12:28:14;;;;;;;0.70;0.70;;;22.20;73.70;;;;;;5023896;28;20021;-41
2021/08/05 12:30:51;;;;;;;0.60;0.60;;;22.40;72.60;;;;;;5014528;28;20061;-42
2021/08/05 12:33:29;;;;;;;0.77;0.77;;;22.50;72.00;;;;;;5042004;28;20475;-42
2021/08/05 12:36:15;;;;;;;0.70;0.70;;;22.50;71.90;;;;;;5031760;28;20037;-42
2021/08/05 12:38:56;;;;;;;1.20;0.82;;;22.50;72.00;;;;;;5035941;28;20040;-43
2021/08/05 12:41:35;;;;;;;0.80;0.80;;;22.60;71.70;;;;;;5034636;28;20041;-42
2021/08/05 12:44:05;;;;;;;0.50;0.50;;;22.50;72.10;;;;;;5029775;28;20061;-43
2021/08/05 12:46:31;;;;;;;0.98;0.77;;;22.50;71.80;;;;;;5007467;28;20029;-43
2021/08/05 12:48:57;;;;;;;0.68;0.68;;;22.60;71.70;;;;;;5024402;28;20036;-43